Impacts METAR Board
IDs:

KJFK - New York/Kennedy Int, NY, US

Updated at: 0300 UTC 06 Dec 2019
Potential Impact None Slight Moderate High
Time 05/15Z 05/16Z 05/17Z 05/18Z 05/19Z 05/20Z 05/21Z 05/22Z 05/23Z 06/00Z 06/01Z 06/02Z 06/03Z
Temp42 43 44 43 43 43 41 40 40 39 38 39 39
Dewpt32 27 23 22 22 22 25 25 23 24 26 25 23
Altim29.77 29.79 29.80 29.78 29.80 29.84 29.88 29.92 29.96 29.99 30.01 30.03 30.07
VIS10 10 10 10 10 10 10 10 10 10 10 10 10
CIG110 -- 50 -- 55 80 60 65 75 -- -- 55 50
CoverBKNSCTBKNSCTBKNBKNBKNBKNBKNSCTSCTBKNBKN
FltCatVFRVFRVFRVFRVFRVFRVFRVFRVFRVFRVFRVFRVFR
WX--------------------------
WDir280280300300300290290300290290300300300
WSpd13 23 22 17 22 18 21 22 15 14 17 13 14
WGst-- 30 30 33 28 24 27 29 -- 26 25 26 --
Raw hourly METARs
KJFK 051451Z 28013KT 10SM SCT035 BKN110 BKN250 06/00 A2977 RMK AO2 SLP081 T00560000 51029
KJFK 051551Z 28023G30KT 10SM SCT043 SCT110 SCT250 06/M03 A2979 RMK AO2 PK WND 29030/1548 SLP088 T00611028
KJFK 051651Z 30022G30KT 10SM BKN050 BKN110 07/M05 A2980 RMK AO2 PK WND 31033/1614 SLP090 T00671050
KJFK 051751Z 30017G33KT 10SM SCT055 SCT100 06/M06 A2978 RMK AO2 PK WND 30037/1658 SLP085 T00611056 10067 20028 50004
KJFK 051851Z 30022G28KT 10SM BKN055 06/M06 A2980 RMK AO2 PK WND 29038/1803 SLP092 VCSH N AND SW T00611056
KJFK 051951Z 29018G24KT 10SM FEW040 SCT060 BKN080 06/M06 A2984 RMK AO2 PK WND 29037/1853 SLP105 T00611056
KJFK 052051Z 29021G27KT 10SM FEW046 BKN060 BKN075 05/M04 A2988 RMK AO2 PK WND 29030/2040 SLP116 VCSH N T00501039 53031
KJFK 052151Z 30022G29KT 10SM SCT050 BKN065 04/M04 A2992 RMK AO2 PK WND 29029/2052 SLP132 T00441039
KJFK 052251Z 29015KT 10SM FEW050 BKN075 04/M05 A2996 RMK AO2 PK WND 30033/2155 SLP144 T00441050
KJFK 052351Z 29014G26KT 10SM FEW040 SCT075 04/M04 A2999 RMK AO2 PK WND 29026/2348 SLP153 T00391044 10067 20039 51037
KJFK 060051Z 30017G25KT 10SM SCT045 SCT075 03/M03 A3001 RMK AO2 PK WND 29028/0015 SLP162 T00331033
KJFK 060151Z 30013G26KT 10SM BKN055 04/M04 A3003 RMK AO2 PK WND 30030/0117 SLP169 T00391039
KJFK 060251Z 30014KT 10SM BKN050 04/M05 A3007 RMK AO2 SLP181 T00391050 53028



Page loaded:  03:49 UTC  |   07:49 PM Pacific  |   08:49 PM Mountain  |   09:49 PM Central  |   10:49 PM Eastern

 

ADVISORIES

FORECASTS

FORECASTS

OBSERVATIONS

USER TOOLS

ABOUT US